Terminal Aerodrome Forecast
Issued by NWS

Home | Current Version | Previous Version | Text Only | Print | Product List | Glossary On
Versions: 1 2 3 4 5 6 7 8 9 10 11 12 13 14 15 16 17 18 19 20 21 22 23
000
FTUS44 KLZK 272300
TAFLIT
TAF
KLIT 272333Z 2800/2824 06010G18KT P6SM SCT100
     FM280300 05012KT P6SM BKN100
     FM280800 04012KT P6SM VCSH SCT050 OVC100
      TEMPO 2808/2812 5SM -RA BR OVC050
     FM281200 03013KT 4SM -RA BR SCT025 OVC050
      TEMPO 2812/2816 2SM -RA BR OVC025
     FM281600 02012KT 4SM -RA BR OVC010=

USA.gov is the U.S. government's official web portal to all federal, state and local government web resources and services.